createdAt,value
2022-08-31T00:00:41.957Z,25.73
2022-08-31T00:01:42.230Z,25.73
2022-08-31T00:02:42.499Z,25.73
2022-08-31T00:03:42.739Z,25.72
2022-08-31T00:04:43.033Z,25.73
2022-08-31T00:05:43.287Z,25.72
2022-08-31T00:06:43.527Z,25.72
2022-08-31T00:07:43.767Z,25.72
2022-08-31T00:08:44.051Z,25.72
2022-08-31T00:09:44.300Z,25.72
2022-08-31T00:10:45.087Z,25.70
2022-08-31T00:11:44.860Z,25.70
2022-08-31T00:12:45.089Z,25.72
2022-08-31T00:13:45.331Z,25.70
2022-08-31T00:14:45.583Z,25.70
2022-08-31T00:15:45.823Z,25.70
2022-08-31T00:16:46.220Z,25.70
2022-08-31T00:17:46.338Z,25.70
2022-08-31T00:18:46.614Z,25.69
2022-08-31T00:19:46.863Z,25.70
2022-08-31T00:20:47.101Z,25.70
2022-08-31T00:21:47.336Z,25.70
2022-08-31T00:22:47.625Z,25.69
2022-08-31T00:23:47.875Z,25.69
2022-08-31T00:24:48.116Z,25.69
2022-08-31T00:25:48.355Z,25.69
2022-08-31T00:26:48.605Z,25.70
2022-08-31T00:27:48.847Z,25.69
2022-08-31T00:28:49.087Z,25.69
2022-08-31T00:29:49.337Z,25.69
2022-08-31T00:30:49.579Z,25.67
2022-08-31T00:31:49.858Z,25.67
2022-08-31T00:32:50.107Z,25.67
2022-08-31T00:33:50.360Z,25.67
2022-08-31T00:34:50.608Z,25.67
2022-08-31T00:35:50.848Z,25.67
2022-08-31T00:36:51.089Z,25.65
2022-08-31T00:37:51.338Z,25.67
2022-08-31T00:38:51.579Z,25.65
2022-08-31T00:39:51.831Z,25.65
2022-08-31T00:40:52.104Z,25.65
2022-08-31T00:41:52.350Z,25.65
2022-08-31T00:42:52.590Z,25.65
2022-08-31T00:43:52.843Z,25.65
2022-08-31T00:44:53.081Z,25.65
2022-08-31T00:45:53.364Z,25.65
2022-08-31T00:46:53.592Z,25.65
2022-08-31T00:47:53.832Z,25.65
2022-08-31T00:48:54.073Z,25.64
2022-08-31T00:49:54.323Z,25.64
2022-08-31T00:50:54.563Z,25.64
2022-08-31T00:51:54.863Z,25.64
2022-08-31T00:52:55.104Z,25.64
2022-08-31T00:53:55.346Z,25.64
2022-08-31T00:54:55.594Z,25.64
2022-08-31T00:55:55.855Z,25.64
2022-08-31T00:56:56.098Z,25.62
2022-08-31T00:57:56.336Z,25.62
2022-08-31T00:58:56.603Z,25.64
2022-08-31T00:59:56.867Z,25.62
2022-08-31T01:00:57.174Z,25.62
2022-08-31T01:01:57.569Z,25.62
2022-08-31T01:02:57.805Z,25.61
2022-08-31T01:03:58.018Z,25.62
2022-08-31T01:04:58.259Z,25.61
2022-08-31T01:05:58.501Z,25.61
2022-08-31T01:06:58.739Z,25.61
2022-08-31T01:07:58.989Z,25.61
2022-08-31T01:08:59.231Z,25.61
2022-08-31T01:09:59.479Z,25.61
2022-08-31T01:10:59.790Z,25.61
2022-08-31T01:12:00.035Z,25.60
2022-08-31T01:13:00.273Z,25.60
2022-08-31T01:14:00.501Z,25.60
2022-08-31T01:15:00.742Z,25.61
2022-08-31T01:16:01.019Z,25.60
2022-08-31T01:17:01.272Z,25.60
2022-08-31T01:18:01.512Z,25.60
2022-08-31T01:19:01.753Z,25.61
2022-08-31T01:20:02.003Z,25.60
2022-08-31T01:21:02.244Z,25.60
2022-08-31T01:22:02.494Z,25.60
2022-08-31T01:23:02.735Z,25.58
2022-08-31T01:24:02.974Z,25.60
2022-08-31T01:25:03.236Z,25.60
2022-08-31T01:26:03.496Z,25.58
2022-08-31T01:27:03.746Z,25.58
2022-08-31T01:28:03.986Z,25.58
2022-08-31T01:29:04.227Z,25.58
2022-08-31T01:30:04.475Z,25.57
2022-08-31T01:31:04.715Z,25.58
2022-08-31T01:32:05.000Z,25.57
2022-08-31T01:33:05.241Z,25.58
2022-08-31T01:34:05.479Z,25.57
2022-08-31T01:35:05.719Z,25.57
2022-08-31T01:36:05.960Z,25.57
2022-08-31T01:37:06.200Z,25.57
2022-08-31T01:38:06.440Z,25.57
2022-08-31T01:39:06.681Z,25.57
2022-08-31T01:40:07.037Z,25.55
2022-08-31T01:41:07.251Z,25.55
2022-08-31T01:42:07.501Z,25.57
2022-08-31T01:43:07.740Z,25.55
2022-08-31T01:44:07.982Z,25.55
2022-08-31T01:45:08.222Z,25.57
2022-08-31T01:46:09.051Z,25.57
2022-08-31T01:47:08.840Z,25.54
2022-08-31T01:48:09.073Z,25.55
2022-08-31T01:49:09.314Z,25.55
2022-08-31T01:50:09.554Z,25.55
2022-08-31T01:51:12.312Z,25.54
2022-08-31T01:52:10.105Z,25.54
2022-08-31T01:53:10.347Z,25.55
2022-08-31T01:54:10.587Z,25.55
2022-08-31T01:55:10.838Z,25.54
2022-08-31T01:56:11.077Z,25.54
2022-08-31T01:57:11.316Z,25.54
2022-08-31T01:58:11.597Z,25.55
2022-08-31T01:59:11.839Z,25.54
2022-08-31T02:00:12.139Z,25.52
2022-08-31T02:01:31.274Z,25.54
2022-08-31T02:02:13.637Z,25.54
2022-08-31T02:03:12.929Z,25.52
2022-08-31T02:04:13.169Z,25.54
2022-08-31T02:05:13.411Z,25.54
2022-08-31T02:06:13.664Z,25.52
2022-08-31T02:07:13.907Z,25.52
2022-08-31T02:08:14.150Z,25.52
2022-08-31T02:09:14.403Z,25.54
2022-08-31T02:10:14.662Z,25.51
2022-08-31T02:11:14.911Z,25.51
2022-08-31T02:12:15.156Z,25.52
2022-08-31T02:13:15.392Z,25.54
2022-08-31T02:14:15.638Z,25.54
2022-08-31T02:15:15.883Z,25.52
2022-08-31T02:16:16.185Z,25.52
2022-08-31T02:17:16.436Z,25.52
2022-08-31T02:18:16.675Z,25.52
2022-08-31T02:19:16.924Z,25.52
2022-08-31T02:20:17.165Z,25.51
2022-08-31T02:21:17.417Z,25.52
2022-08-31T02:22:17.655Z,25.52
2022-08-31T02:23:18.061Z,25.51
2022-08-31T02:24:18.187Z,25.51
2022-08-31T02:25:18.427Z,25.51
2022-08-31T02:26:18.667Z,25.52
2022-08-31T02:27:18.967Z,25.51
2022-08-31T02:28:19.207Z,25.51
2022-08-31T02:29:19.449Z,25.51
2022-08-31T02:30:19.711Z,25.51
2022-08-31T02:31:19.982Z,25.51
2022-08-31T02:32:20.385Z,25.51
2022-08-31T02:33:20.558Z,25.51
2022-08-31T02:34:20.799Z,25.51
2022-08-31T02:35:21.040Z,25.51
2022-08-31T02:36:21.294Z,25.51
2022-08-31T02:37:21.542Z,25.50
2022-08-31T02:38:21.852Z,25.51
2022-08-31T02:39:22.161Z,25.51
2022-08-31T02:40:22.458Z,25.50
2022-08-31T02:41:22.651Z,25.50
2022-08-31T02:42:22.889Z,25.51
2022-08-31T02:43:24.402Z,25.51
2022-08-31T02:44:23.384Z,25.50
2022-08-31T02:45:23.633Z,25.50
2022-08-31T02:46:23.973Z,25.50
2022-08-31T02:47:24.174Z,25.50
2022-08-31T02:48:24.415Z,25.50
2022-08-31T02:49:24.655Z,25.50
2022-08-31T02:50:24.905Z,25.47
2022-08-31T02:51:25.165Z,25.47
2022-08-31T02:52:25.415Z,25.50
2022-08-31T02:53:25.654Z,25.47
2022-08-31T02:54:25.886Z,25.50
2022-08-31T02:55:26.139Z,25.47
2022-08-31T02:56:26.382Z,25.47
2022-08-31T02:57:26.617Z,25.47
2022-08-31T02:58:26.858Z,25.47
2022-08-31T02:59:27.101Z,25.47
2022-08-31T03:00:27.338Z,25.47
2022-08-31T03:01:27.622Z,25.47
2022-08-31T03:02:32.090Z,25.47
2022-08-31T03:03:28.113Z,25.47
2022-08-31T03:04:28.350Z,25.47
2022-08-31T03:05:28.590Z,25.46
2022-08-31T03:06:28.830Z,25.47
2022-08-31T03:07:29.071Z,25.46
2022-08-31T03:08:29.591Z,25.47
2022-08-31T03:09:29.553Z,25.47
2022-08-31T03:10:29.802Z,25.47
2022-08-31T03:11:30.045Z,25.47
2022-08-31T03:12:30.276Z,25.47
2022-08-31T03:13:30.523Z,25.47
2022-08-31T03:14:30.761Z,25.46
2022-08-31T03:15:31.053Z,25.46
2022-08-31T03:16:31.284Z,25.47
2022-08-31T03:17:31.528Z,25.47
2022-08-31T03:18:31.765Z,25.46
2022-08-31T03:19:32.007Z,25.46
2022-08-31T03:20:32.256Z,25.45
2022-08-31T03:21:32.565Z,25.45
2022-08-31T03:22:32.806Z,25.46
2022-08-31T03:23:33.046Z,25.46
2022-08-31T03:24:33.288Z,25.46
2022-08-31T03:25:33.527Z,25.46
2022-08-31T03:26:33.767Z,25.46
2022-08-31T03:27:34.014Z,25.46
2022-08-31T03:28:34.248Z,25.46
2022-08-31T03:29:34.488Z,25.45
2022-08-31T03:30:34.741Z,25.45
2022-08-31T03:31:35.053Z,25.45
2022-08-31T03:32:35.271Z,25.46
2022-08-31T03:33:35.510Z,25.45
2022-08-31T03:34:35.750Z,25.46
2022-08-31T03:35:35.999Z,25.46
2022-08-31T03:36:36.231Z,25.45
2022-08-31T03:37:36.481Z,25.45
2022-08-31T03:38:36.723Z,25.43
2022-08-31T03:39:36.962Z,25.45
2022-08-31T03:40:37.250Z,25.45
2022-08-31T03:41:37.503Z,25.45
2022-08-31T03:42:37.744Z,25.45
2022-08-31T03:43:37.983Z,25.43
2022-08-31T03:44:38.223Z,25.45
2022-08-31T03:45:38.465Z,25.45
2022-08-31T03:46:38.749Z,25.45
2022-08-31T03:47:44.934Z,25.45
2022-08-31T03:48:40.235Z,25.45
2022-08-31T03:49:39.539Z,25.45
2022-08-31T03:50:39.782Z,25.45
2022-08-31T03:51:40.026Z,25.43
2022-08-31T03:52:40.267Z,25.45
2022-08-31T03:53:40.527Z,25.43
2022-08-31T03:54:40.768Z,25.45
2022-08-31T03:55:41.010Z,25.43
2022-08-31T03:56:41.247Z,25.43
2022-08-31T03:57:41.489Z,25.43
2022-08-31T03:58:41.729Z,25.43
2022-08-31T03:59:41.970Z,25.43
2022-08-31T04:00:42.210Z,25.43
2022-08-31T04:01:42.513Z,25.42
2022-08-31T04:02:42.858Z,25.43
2022-08-31T04:03:43.051Z,25.43
2022-08-31T04:04:43.290Z,25.43
2022-08-31T04:05:43.531Z,25.43
2022-08-31T04:06:43.771Z,25.43
2022-08-31T04:07:44.013Z,25.43
2022-08-31T04:08:44.292Z,25.43
2022-08-31T04:09:44.532Z,25.43
2022-08-31T04:10:44.783Z,25.42
2022-08-31T04:11:45.816Z,25.43
2022-08-31T04:12:45.315Z,25.42
2022-08-31T04:13:45.554Z,25.43
2022-08-31T04:14:45.795Z,25.43
2022-08-31T04:15:46.073Z,25.43
2022-08-31T04:16:46.305Z,25.42
2022-08-31T04:17:46.573Z,25.42
2022-08-31T04:18:46.796Z,25.42
2022-08-31T04:19:47.052Z,25.42
2022-08-31T04:20:47.286Z,25.40
2022-08-31T04:21:47.529Z,25.42
2022-08-31T04:22:47.767Z,25.42
2022-08-31T04:23:48.007Z,25.40
2022-08-31T04:24:48.255Z,25.42
2022-08-31T04:25:48.499Z,25.40
2022-08-31T04:26:48.741Z,25.42
2022-08-31T04:27:48.979Z,25.42
2022-08-31T04:28:49.240Z,25.40
2022-08-31T04:29:49.487Z,25.40
2022-08-31T04:30:49.781Z,25.42
2022-08-31T04:31:50.031Z,25.40
2022-08-31T04:32:50.268Z,25.40
2022-08-31T04:33:50.520Z,25.40
2022-08-31T04:34:55.072Z,25.40
2022-08-31T04:35:51.992Z,25.40
2022-08-31T04:36:51.291Z,25.40
2022-08-31T04:37:51.532Z,25.40
2022-08-31T04:38:51.852Z,25.40
2022-08-31T04:39:52.400Z,25.40
2022-08-31T04:40:52.566Z,25.42
2022-08-31T04:41:52.630Z,25.40
2022-08-31T04:42:52.895Z,25.40
2022-08-31T04:43:53.136Z,25.39
2022-08-31T04:44:53.376Z,25.40
2022-08-31T04:51:18.726Z,25.38
2022-08-31T04:52:28.327Z,25.38
2022-08-31T04:53:19.448Z,25.39
2022-08-31T04:54:19.584Z,25.38
2022-08-31T04:55:19.824Z,25.39
2022-08-31T04:56:20.054Z,25.38
2022-08-31T04:57:20.285Z,25.39
2022-08-31T04:58:20.525Z,25.38
2022-08-31T04:59:20.758Z,25.39
2022-08-31T05:00:20.996Z,25.38
2022-08-31T05:01:21.279Z,25.38
2022-08-31T05:02:21.597Z,25.38
2022-08-31T05:03:21.807Z,25.38
2022-08-31T05:04:22.047Z,25.38
2022-08-31T05:05:22.287Z,25.38
2022-08-31T05:06:22.531Z,25.36
2022-08-31T05:07:22.768Z,25.38
2022-08-31T05:08:23.006Z,25.38
2022-08-31T05:09:23.238Z,25.38
2022-08-31T05:10:23.478Z,25.38
2022-08-31T05:11:25.118Z,25.38
2022-08-31T05:12:24.089Z,25.35
2022-08-31T05:13:24.331Z,25.35
2022-08-31T05:14:24.570Z,25.36
2022-08-31T05:15:24.801Z,25.35
2022-08-31T05:16:25.094Z,25.35
2022-08-31T05:17:25.319Z,25.33
2022-08-31T05:18:25.552Z,25.33
2022-08-31T05:19:25.791Z,25.32
2022-08-31T05:20:26.032Z,25.32
2022-08-31T05:21:26.272Z,25.28
2022-08-31T05:22:26.512Z,25.27
2022-08-31T05:23:26.743Z,25.25
2022-08-31T05:24:26.980Z,25.24
2022-08-31T05:25:27.251Z,25.24
2022-08-31T05:26:27.484Z,25.23
2022-08-31T05:27:27.715Z,25.20
2022-08-31T05:28:27.955Z,25.20
2022-08-31T05:29:28.185Z,25.18
2022-08-31T05:30:28.437Z,25.17
2022-08-31T05:31:28.713Z,25.15
2022-08-31T05:32:28.977Z,25.15
2022-08-31T05:33:29.207Z,25.13
2022-08-31T05:34:29.484Z,25.13
2022-08-31T05:35:29.729Z,25.10
2022-08-31T05:36:29.960Z,25.10
2022-08-31T05:37:30.187Z,25.08
2022-08-31T05:38:30.427Z,25.08
2022-08-31T05:39:30.658Z,25.08
2022-08-31T05:40:30.990Z,25.08
2022-08-31T05:41:31.208Z,25.05
2022-08-31T05:42:31.451Z,25.05
2022-08-31T05:43:31.702Z,25.05
2022-08-31T05:44:31.949Z,25.03
2022-08-31T05:45:32.180Z,25.03
2022-08-31T05:46:32.487Z,25.02
2022-08-31T05:47:32.720Z,25.00
2022-08-31T05:48:32.968Z,25.00
2022-08-31T05:49:33.291Z,25.02
2022-08-31T05:50:33.532Z,24.99
2022-08-31T05:51:38.376Z,24.99
2022-08-31T05:52:35.154Z,24.99
2022-08-31T05:53:34.452Z,24.99
2022-08-31T05:54:34.723Z,24.96
2022-08-31T05:55:34.954Z,24.96
2022-08-31T05:56:35.202Z,24.95
2022-08-31T05:57:35.434Z,24.95
2022-08-31T05:58:35.692Z,24.93
2022-08-31T05:59:35.925Z,24.93
2022-08-31T06:00:36.183Z,24.93
2022-08-31T06:01:36.471Z,24.91
2022-08-31T06:02:36.724Z,24.90
2022-08-31T06:03:36.963Z,24.90
2022-08-31T06:04:37.197Z,24.90
2022-08-31T06:05:37.543Z,24.90
2022-08-31T06:06:37.737Z,24.90
2022-08-31T06:07:37.970Z,24.88
2022-08-31T06:08:38.208Z,24.88
2022-08-31T06:09:38.448Z,24.88
2022-08-31T06:10:38.698Z,24.87
2022-08-31T06:11:38.939Z,24.85
2022-08-31T06:12:39.188Z,24.85
2022-08-31T06:13:39.419Z,24.87
2022-08-31T06:14:40.858Z,24.84
2022-08-31T06:15:42.375Z,24.84
2022-08-31T06:16:40.213Z,24.85
2022-08-31T06:17:40.480Z,24.84
2022-08-31T06:18:40.758Z,24.84
2022-08-31T06:19:40.991Z,24.83
2022-08-31T06:20:41.300Z,24.83
2022-08-31T06:21:49.769Z,24.83
2022-08-31T06:22:42.781Z,24.81
2022-08-31T06:23:42.072Z,24.81
2022-08-31T06:24:42.313Z,24.81
2022-08-31T06:25:42.553Z,24.78
2022-08-31T06:26:42.814Z,24.80
2022-08-31T06:27:43.054Z,24.80
2022-08-31T06:28:43.284Z,24.77
2022-08-31T06:29:43.524Z,24.78
2022-08-31T06:30:55.044Z,24.77
2022-08-31T06:31:45.035Z,24.77
2022-08-31T06:32:44.225Z,24.77
2022-08-31T06:33:44.467Z,24.77
2022-08-31T06:34:44.726Z,24.76
2022-08-31T06:35:44.976Z,24.76
2022-08-31T06:36:45.223Z,24.76
2022-08-31T06:37:45.467Z,24.73
2022-08-31T06:38:45.707Z,24.73
2022-08-31T06:39:45.937Z,24.73
2022-08-31T06:40:46.284Z,24.69
2022-08-31T06:41:46.498Z,24.71
2022-08-31T06:42:46.776Z,24.71
2022-08-31T06:43:47.009Z,24.69
2022-08-31T06:44:47.240Z,24.69
2022-08-31T06:45:47.515Z,24.68
2022-08-31T06:46:47.819Z,24.68
2022-08-31T06:47:48.030Z,24.68
2022-08-31T06:48:48.273Z,24.67
2022-08-31T06:49:48.508Z,24.67
2022-08-31T06:50:48.750Z,24.67
2022-08-31T06:51:48.982Z,24.65
2022-08-31T06:52:49.221Z,24.65
2022-08-31T06:53:49.452Z,24.64
2022-08-31T06:54:49.693Z,24.64
2022-08-31T06:55:49.971Z,24.64
2022-08-31T06:56:50.205Z,24.65
2022-08-31T06:57:50.442Z,24.64
2022-08-31T06:58:53.733Z,24.64
2022-08-31T06:59:50.933Z,24.62
2022-08-31T07:00:51.231Z,24.64
2022-08-31T07:01:51.562Z,24.62
2022-08-31T07:02:57.374Z,24.64
2022-08-31T07:03:52.874Z,24.61
2022-08-31T07:04:52.167Z,24.62
2022-08-31T07:05:52.415Z,24.61
2022-08-31T07:06:52.648Z,24.61
2022-08-31T07:07:52.885Z,24.61
2022-08-31T07:08:53.117Z,24.61
2022-08-31T07:09:53.389Z,24.60
2022-08-31T07:10:53.617Z,24.61
2022-08-31T07:11:53.859Z,24.58
2022-08-31T07:12:54.089Z,24.60
2022-08-31T07:13:54.327Z,24.60
2022-08-31T07:14:55.244Z,24.60
2022-08-31T07:15:54.920Z,24.58
2022-08-31T07:16:55.149Z,24.58
2022-08-31T07:17:55.394Z,24.57
2022-08-31T07:18:55.628Z,24.58
2022-08-31T07:19:55.860Z,24.58
2022-08-31T07:20:56.101Z,24.57
2022-08-31T07:21:56.351Z,24.57
2022-08-31T07:22:56.591Z,24.57
2022-08-31T07:23:56.831Z,24.55
2022-08-31T07:24:57.070Z,24.53
2022-08-31T07:25:57.313Z,24.55
2022-08-31T07:26:57.543Z,24.53
2022-08-31T07:27:57.791Z,24.53
2022-08-31T07:28:58.575Z,24.53
2022-08-31T07:29:58.362Z,24.55
2022-08-31T07:30:58.648Z,24.53
2022-08-31T07:31:58.884Z,24.55
2022-08-31T07:32:59.124Z,24.52
2022-08-31T07:33:59.364Z,24.53
2022-08-31T07:35:00.967Z,24.53
2022-08-31T07:35:59.935Z,24.53
2022-08-31T07:37:00.174Z,24.53
2022-08-31T07:38:00.536Z,24.52
2022-08-31T07:39:00.726Z,24.52
2022-08-31T07:40:06.203Z,24.52
2022-08-31T07:41:02.219Z,24.52
2022-08-31T07:42:01.475Z,24.52
2022-08-31T07:43:01.707Z,24.50
2022-08-31T07:44:02.018Z,24.52
2022-08-31T07:45:02.297Z,24.52
2022-08-31T07:46:02.598Z,24.50
2022-08-31T07:47:02.768Z,24.50
2022-08-31T07:48:03.072Z,24.49
2022-08-31T07:49:03.311Z,24.49
2022-08-31T07:50:03.550Z,24.50
2022-08-31T07:51:03.790Z,24.50
2022-08-31T07:52:04.043Z,24.49
2022-08-31T07:53:04.281Z,24.49
2022-08-31T07:54:04.520Z,24.49
2022-08-31T07:55:04.809Z,24.49
2022-08-31T07:56:05.053Z,24.50
2022-08-31T07:57:05.292Z,24.50
2022-08-31T07:58:05.533Z,24.49
2022-08-31T07:59:05.773Z,24.49
2022-08-31T08:00:06.013Z,24.50
2022-08-31T08:01:06.253Z,24.50
2022-08-31T08:02:06.655Z,24.47
2022-08-31T08:03:06.929Z,24.49
2022-08-31T08:04:07.084Z,24.49
2022-08-31T08:05:07.326Z,24.49
2022-08-31T08:06:07.616Z,24.47
2022-08-31T08:07:07.855Z,24.47
2022-08-31T08:08:13.551Z,24.49
2022-08-31T08:09:25.472Z,24.47
2022-08-31T08:10:09.596Z,24.47
2022-08-31T08:11:08.867Z,24.47
2022-08-31T08:12:09.106Z,24.46
2022-08-31T08:13:09.411Z,24.45
2022-08-31T08:14:09.656Z,24.46
2022-08-31T08:15:09.888Z,24.45
2022-08-31T08:16:10.210Z,24.45
2022-08-31T08:17:10.430Z,24.45
2022-08-31T08:18:10.673Z,24.43
2022-08-31T08:19:10.909Z,24.43
2022-08-31T08:20:13.806Z,24.45
2022-08-31T08:21:11.500Z,24.45
2022-08-31T08:22:11.740Z,24.45
2022-08-31T08:23:13.551Z,24.46
2022-08-31T08:24:12.262Z,24.46
2022-08-31T08:25:12.518Z,24.45
2022-08-31T08:26:21.129Z,24.46
2022-08-31T08:27:13.992Z,24.45
2022-08-31T08:28:36.051Z,24.45
2022-08-31T08:29:14.532Z,24.46
2022-08-31T08:30:13.836Z,24.45
2022-08-31T08:31:14.106Z,24.45
2022-08-31T08:32:17.522Z,24.43
2022-08-31T08:33:14.662Z,24.43
2022-08-31T08:34:14.904Z,24.45
2022-08-31T08:35:15.154Z,24.43
2022-08-31T08:36:15.394Z,24.43
2022-08-31T08:37:15.675Z,24.43
2022-08-31T08:38:15.924Z,24.42
2022-08-31T08:39:16.166Z,24.42
2022-08-31T08:40:16.499Z,24.42
2022-08-31T08:41:16.708Z,24.42
2022-08-31T08:42:16.947Z,24.42
2022-08-31T08:43:17.315Z,24.40
2022-08-31T08:44:18.137Z,24.43
2022-08-31T08:45:17.717Z,24.43
2022-08-31T08:46:34.010Z,24.43
2022-08-31T08:47:20.818Z,24.43
2022-08-31T08:48:18.519Z,24.45
2022-08-31T08:49:18.770Z,24.45
2022-08-31T08:50:19.009Z,24.46
2022-08-31T08:51:19.250Z,24.46
2022-08-31T08:52:19.501Z,24.46
2022-08-31T08:53:19.965Z,24.46
2022-08-31T08:54:20.088Z,24.46
2022-08-31T08:55:20.321Z,24.46
2022-08-31T08:56:32.743Z,24.46
2022-08-31T08:57:21.811Z,24.47
2022-08-31T08:58:21.120Z,24.46
2022-08-31T08:59:21.352Z,24.47
2022-08-31T09:00:21.633Z,24.46
2022-08-31T09:01:21.927Z,24.47
2022-08-31T09:02:22.189Z,24.47
2022-08-31T09:03:22.443Z,24.47
2022-08-31T09:04:22.685Z,24.46
2022-08-31T09:05:22.924Z,24.47
2022-08-31T09:06:23.174Z,24.47
2022-08-31T09:07:23.415Z,24.47
2022-08-31T09:08:23.658Z,24.47
2022-08-31T09:09:23.895Z,24.49
2022-08-31T09:10:24.137Z,24.47
2022-08-31T09:11:24.376Z,24.47
2022-08-31T09:12:24.627Z,24.49
2022-08-31T09:13:24.867Z,24.49
2022-08-31T09:14:25.117Z,24.49
2022-08-31T09:15:25.358Z,24.49
2022-08-31T09:16:25.624Z,24.50
2022-08-31T09:17:25.858Z,24.49
2022-08-31T09:18:26.110Z,24.49
2022-08-31T09:19:26.337Z,24.50
2022-08-31T09:20:26.580Z,24.49
2022-08-31T09:21:26.819Z,24.50
2022-08-31T09:22:27.068Z,24.50
2022-08-31T09:23:27.310Z,24.50
2022-08-31T09:24:27.596Z,24.50
2022-08-31T09:25:27.821Z,24.49
2022-08-31T09:26:28.070Z,24.49
2022-08-31T09:27:28.303Z,24.50
2022-08-31T09:28:28.543Z,24.49
2022-08-31T09:29:28.782Z,24.49
2022-08-31T09:30:29.023Z,24.49
2022-08-31T09:31:29.296Z,24.49
2022-08-31T09:32:29.523Z,24.49
2022-08-31T09:33:29.766Z,24.49
2022-08-31T09:34:30.024Z,24.47
2022-08-31T09:35:30.325Z,24.49
2022-08-31T09:36:30.577Z,24.47
2022-08-31T09:37:30.846Z,24.47
2022-08-31T09:38:31.085Z,24.47
2022-08-31T09:39:31.326Z,24.47
2022-08-31T09:40:32.597Z,24.47
2022-08-31T09:41:31.897Z,24.46
2022-08-31T09:42:33.823Z,24.46
2022-08-31T09:43:32.427Z,24.46
2022-08-31T09:44:32.708Z,24.46
2022-08-31T09:45:32.995Z,24.46
2022-08-31T09:46:33.220Z,24.45
2022-08-31T09:47:33.478Z,24.43
2022-08-31T09:48:33.733Z,24.45
2022-08-31T09:49:33.989Z,24.45
2022-08-31T09:50:35.586Z,24.45
2022-08-31T09:51:34.499Z,24.45
2022-08-31T09:52:34.750Z,24.45
2022-08-31T09:53:35.001Z,24.43
2022-08-31T09:54:35.260Z,24.43
2022-08-31T09:55:35.504Z,24.45
2022-08-31T09:56:35.750Z,24.43
2022-08-31T09:57:35.992Z,24.43
2022-08-31T09:58:36.232Z,24.42
2022-08-31T09:59:36.472Z,24.43
2022-08-31T10:00:36.722Z,24.42
2022-08-31T10:01:37.033Z,24.43
2022-08-31T10:02:37.273Z,24.43
2022-08-31T10:03:37.524Z,24.43
2022-08-31T10:04:37.809Z,24.42
2022-08-31T10:05:38.064Z,24.40
2022-08-31T10:06:38.316Z,24.42
2022-08-31T10:07:39.547Z,24.42
2022-08-31T10:08:38.845Z,24.40
2022-08-31T10:09:39.096Z,24.42
2022-08-31T10:10:39.317Z,24.40
2022-08-31T10:11:39.556Z,24.40
2022-08-31T10:12:39.849Z,24.42
2022-08-31T10:13:40.086Z,24.40
2022-08-31T10:14:40.347Z,24.40
2022-08-31T10:15:40.628Z,24.42
2022-08-31T10:16:40.878Z,24.42
2022-08-31T10:17:41.118Z,24.42
2022-08-31T10:18:41.358Z,24.42
2022-08-31T10:19:41.639Z,24.40
2022-08-31T10:20:41.887Z,24.42
2022-08-31T10:21:42.130Z,24.40
2022-08-31T10:22:42.388Z,24.42
2022-08-31T10:23:42.639Z,24.40
2022-08-31T10:24:42.902Z,24.40
2022-08-31T10:25:43.143Z,24.40
2022-08-31T10:26:43.451Z,24.40
2022-08-31T10:27:43.692Z,24.40
2022-08-31T10:28:43.934Z,24.39
2022-08-31T10:29:44.175Z,24.39
2022-08-31T10:30:44.466Z,24.39
2022-08-31T10:31:44.720Z,24.40
2022-08-31T10:32:44.961Z,24.39
2022-08-31T10:33:45.203Z,24.39
2022-08-31T10:34:45.443Z,24.37
2022-08-31T10:35:45.682Z,24.35
2022-08-31T10:36:45.934Z,24.37
2022-08-31T10:37:46.174Z,24.37
2022-08-31T10:38:46.423Z,24.37
2022-08-31T10:39:46.655Z,24.34
2022-08-31T10:40:46.934Z,24.35
2022-08-31T10:41:47.206Z,24.34
2022-08-31T10:42:47.447Z,24.35
2022-08-31T10:43:47.694Z,24.32
2022-08-31T10:44:50.091Z,24.32
2022-08-31T10:45:48.243Z,24.32
2022-08-31T10:46:48.518Z,24.34
2022-08-31T10:47:48.759Z,24.32
2022-08-31T10:48:48.998Z,24.32
2022-08-31T10:49:49.248Z,24.32
2022-08-31T10:50:49.479Z,24.32
2022-08-31T10:51:49.727Z,24.32
2022-08-31T10:52:49.979Z,24.32
2022-08-31T10:53:50.223Z,24.31
2022-08-31T10:54:50.460Z,24.31
2022-08-31T10:55:50.833Z,24.32
2022-08-31T10:56:51.065Z,24.32
2022-08-31T10:57:51.301Z,24.32
2022-08-31T10:58:51.542Z,24.34
2022-08-31T10:59:55.825Z,24.34
2022-08-31T11:00:52.063Z,24.34
2022-08-31T11:01:52.369Z,24.32
2022-08-31T11:02:52.595Z,24.34
2022-08-31T11:03:52.835Z,24.32
2022-08-31T11:04:53.143Z,24.32
2022-08-31T11:05:53.353Z,24.32
2022-08-31T11:06:53.604Z,24.32
2022-08-31T11:07:53.845Z,24.31
2022-08-31T11:08:54.109Z,24.32
2022-08-31T11:09:54.343Z,24.31
2022-08-31T11:10:54.593Z,24.32
2022-08-31T11:11:54.836Z,24.31
2022-08-31T11:12:55.197Z,24.31
2022-08-31T11:13:55.306Z,24.32
2022-08-31T11:14:55.549Z,24.30
2022-08-31T11:15:55.816Z,24.31
2022-08-31T11:16:56.077Z,24.30
2022-08-31T11:17:56.319Z,24.31
2022-08-31T11:18:56.560Z,24.30
2022-08-31T11:19:56.798Z,24.30
2022-08-31T11:20:57.042Z,24.31
2022-08-31T11:21:57.321Z,24.30
2022-08-31T11:22:57.559Z,24.30
2022-08-31T11:23:57.811Z,24.30
2022-08-31T11:24:58.048Z,24.30
2022-08-31T11:25:58.293Z,24.30
2022-08-31T11:26:58.532Z,24.30
2022-08-31T11:27:58.772Z,24.30
2022-08-31T11:28:59.011Z,24.30
2022-08-31T11:29:59.251Z,24.30
2022-08-31T11:30:59.552Z,24.30
2022-08-31T11:31:59.751Z,24.30
2022-08-31T11:33:00.045Z,24.27
2022-08-31T11:34:15.465Z,24.30
2022-08-31T11:35:01.553Z,24.28
2022-08-31T11:36:06.166Z,24.30
2022-08-31T11:37:02.094Z,24.30
2022-08-31T11:38:01.402Z,24.30
2022-08-31T11:39:01.654Z,24.30
2022-08-31T11:40:01.919Z,24.28
2022-08-31T11:41:02.174Z,24.30
2022-08-31T11:42:03.746Z,24.28
2022-08-31T11:43:02.686Z,24.30
2022-08-31T11:44:02.946Z,24.28
2022-08-31T11:45:03.196Z,24.30
2022-08-31T11:46:03.527Z,24.30
2022-08-31T11:47:05.930Z,24.28
2022-08-31T11:48:04.126Z,24.27
2022-08-31T11:49:04.376Z,24.27
2022-08-31T11:50:04.629Z,24.27
2022-08-31T11:51:04.948Z,24.27
2022-08-31T11:52:05.326Z,24.27
2022-08-31T11:53:05.530Z,24.27
2022-08-31T11:54:05.790Z,24.27
2022-08-31T11:55:06.046Z,24.25
2022-08-31T11:56:06.290Z,24.25
2022-08-31T11:57:07.140Z,24.27
2022-08-31T11:58:06.818Z,24.27
2022-08-31T11:59:07.061Z,24.25
2022-08-31T12:00:07.361Z,24.25
2022-08-31T12:01:07.612Z,24.25
2022-08-31T12:02:07.910Z,24.25
2022-08-31T12:03:08.153Z,24.25
2022-08-31T12:04:08.412Z,24.25
2022-08-31T12:05:08.673Z,24.25
2022-08-31T12:06:08.904Z,24.25
2022-08-31T12:07:09.173Z,24.24
2022-08-31T12:08:09.424Z,24.24
2022-08-31T12:09:09.674Z,24.25
2022-08-31T12:10:09.936Z,24.24
2022-08-31T12:11:10.185Z,24.24
2022-08-31T12:12:12.756Z,24.24
2022-08-31T12:13:10.706Z,24.24
2022-08-31T12:14:10.987Z,24.22
2022-08-31T12:15:11.237Z,24.22
2022-08-31T12:16:11.604Z,24.24
2022-08-31T12:17:11.717Z,24.24
2022-08-31T12:18:11.975Z,24.22
2022-08-31T12:19:12.225Z,24.22
2022-08-31T12:20:12.478Z,24.22
2022-08-31T12:21:12.746Z,24.22
2022-08-31T12:22:12.999Z,24.22
2022-08-31T12:23:15.315Z,24.22
2022-08-31T12:24:18.829Z,24.22
2022-08-31T12:25:13.820Z,24.22
2022-08-31T12:26:14.077Z,24.24
2022-08-31T12:27:14.331Z,24.25
2022-08-31T12:28:14.602Z,24.25
2022-08-31T12:29:14.854Z,24.25
2022-08-31T12:30:15.102Z,24.27
2022-08-31T12:31:15.397Z,24.27
2022-08-31T12:32:15.671Z,24.27
2022-08-31T12:33:15.922Z,24.27
2022-08-31T12:34:16.173Z,24.27
2022-08-31T12:35:16.434Z,24.25
2022-08-31T12:36:16.692Z,24.25
2022-08-31T12:37:16.954Z,24.27
2022-08-31T12:38:17.227Z,24.25
2022-08-31T12:39:17.484Z,24.27
2022-08-31T12:40:17.841Z,24.27
2022-08-31T12:41:21.140Z,24.27
2022-08-31T12:42:20.754Z,24.25
2022-08-31T12:43:18.755Z,24.27
2022-08-31T12:44:18.916Z,24.25
2022-08-31T12:45:19.177Z,24.28
2022-08-31T12:46:19.479Z,24.27
2022-08-31T12:47:23.942Z,24.27
2022-08-31T12:48:20.108Z,24.27
2022-08-31T12:49:20.358Z,24.27
2022-08-31T12:50:20.614Z,24.27
2022-08-31T12:51:20.866Z,24.27
2022-08-31T12:52:21.118Z,24.28
2022-08-31T12:53:21.378Z,24.25
2022-08-31T12:54:21.638Z,24.27
2022-08-31T12:55:21.889Z,24.28
2022-08-31T12:56:22.149Z,24.28
2022-08-31T12:57:26.838Z,24.28
2022-08-31T12:58:22.670Z,24.27
2022-08-31T12:59:22.931Z,24.27
2022-08-31T13:00:23.193Z,24.28
2022-08-31T13:01:23.588Z,24.27